createdAt,value
2023-02-08T00:00:40.640Z,81.88
2023-02-08T00:01:40.289Z,82.40
2023-02-08T00:02:40.303Z,83.14
2023-02-08T00:03:40.278Z,83.14
2023-02-08T00:04:40.315Z,83.45
2023-02-08T00:05:40.239Z,83.25
2023-02-08T00:06:40.213Z,82.82
2023-02-08T00:07:40.227Z,82.58
2023-02-08T00:08:40.210Z,82.16
2023-02-08T00:09:40.220Z,82.09
2023-02-08T00:10:40.583Z,82.40
2023-02-08T00:11:40.180Z,82.51
2023-02-08T00:12:40.163Z,82.62
2023-02-08T00:13:41.977Z,82.72
2023-02-08T00:14:40.154Z,82.93
2023-02-08T00:15:40.185Z,83.56
2023-02-08T00:16:40.104Z,83.35
2023-02-08T00:17:40.104Z,82.82
2023-02-08T00:18:40.089Z,83.25
2023-02-08T00:19:40.087Z,82.62
2023-02-08T00:20:40.399Z,82.86
2023-02-08T00:21:40.126Z,83.39
2023-02-08T00:22:40.048Z,83.56
2023-02-08T00:23:40.032Z,83.35
2023-02-08T00:24:40.032Z,83.56
2023-02-08T00:25:40.030Z,82.93
2023-02-08T00:26:40.033Z,82.40
2023-02-08T00:27:39.993Z,83.18
2023-02-08T00:28:39.991Z,83.45
2023-02-08T00:29:39.967Z,83.35
2023-02-08T00:30:40.229Z,83.25
2023-02-08T00:31:40.093Z,83.03
2023-02-08T00:32:39.955Z,83.07
2023-02-08T00:33:39.934Z,82.97
2023-02-08T00:34:39.906Z,83.59
2023-02-08T00:35:39.914Z,83.59
2023-02-08T00:36:39.895Z,83.03
2023-02-08T00:37:39.878Z,82.82
2023-02-08T00:38:39.904Z,82.62
2023-02-08T00:39:39.859Z,82.86
2023-02-08T00:40:40.032Z,82.97
2023-02-08T00:41:39.843Z,82.86
2023-02-08T00:42:39.803Z,82.97
2023-02-08T00:43:39.808Z,83.07
2023-02-08T00:44:39.818Z,82.93
2023-02-08T00:45:39.795Z,82.51
2023-02-08T00:46:39.893Z,82.23
2023-02-08T00:47:39.803Z,82.20
2023-02-08T00:48:39.762Z,81.82
2023-02-08T00:49:39.769Z,82.23
2023-02-08T00:50:39.920Z,82.76
2023-02-08T00:51:39.720Z,82.13
2023-02-08T00:52:39.709Z,82.23
2023-02-08T00:53:39.696Z,82.55
2023-02-08T00:54:39.676Z,82.13
2023-02-08T00:55:39.704Z,81.88
2023-02-08T00:56:39.652Z,81.60
2023-02-08T00:57:39.685Z,81.78
2023-02-08T00:58:39.663Z,81.36
2023-02-08T00:59:39.643Z,81.04
2023-02-08T01:00:39.872Z,81.19
2023-02-08T01:01:39.672Z,81.29
2023-02-08T01:02:39.602Z,81.50
2023-02-08T01:03:39.572Z,81.40
2023-02-08T01:04:39.593Z,81.50
2023-02-08T01:05:39.599Z,81.82
2023-02-08T01:06:39.597Z,81.60
2023-02-08T01:07:39.630Z,81.29
2023-02-08T01:08:39.517Z,81.29
2023-02-08T01:09:39.502Z,81.04
2023-02-08T01:10:39.748Z,80.52
2023-02-08T01:11:39.533Z,80.87
2023-02-08T01:12:39.463Z,81.08
2023-02-08T01:13:39.482Z,80.87
2023-02-08T01:14:39.493Z,81.19
2023-02-08T01:15:39.450Z,80.98
2023-02-08T01:16:39.457Z,81.08
2023-02-08T01:17:39.464Z,81.08
2023-02-08T01:18:39.403Z,80.91
2023-02-08T01:19:41.570Z,81.12
2023-02-08T01:20:39.705Z,81.23
2023-02-08T01:21:39.379Z,81.12
2023-02-08T01:22:39.380Z,80.91
2023-02-08T01:23:39.347Z,80.56
2023-02-08T01:24:39.387Z,80.60
2023-02-08T01:25:39.320Z,80.80
2023-02-08T01:26:39.334Z,80.60
2023-02-08T01:27:39.313Z,80.94
2023-02-08T01:28:39.305Z,81.47
2023-02-08T01:29:39.275Z,81.57
2023-02-08T01:30:39.800Z,81.89
2023-02-08T01:31:39.333Z,81.54
2023-02-08T01:32:39.245Z,81.68
2023-02-08T01:33:39.248Z,81.99
2023-02-08T01:34:39.225Z,81.99
2023-02-08T01:35:39.228Z,81.79
2023-02-08T01:36:39.255Z,81.68
2023-02-08T01:37:39.196Z,81.99
2023-02-08T01:38:39.188Z,82.20
2023-02-08T01:39:39.186Z,81.89
2023-02-08T01:40:39.393Z,81.99
2023-02-08T01:41:39.274Z,81.79
2023-02-08T01:42:39.132Z,82.10
2023-02-08T01:43:39.116Z,82.20
2023-02-08T01:44:39.145Z,82.10
2023-02-08T01:45:39.143Z,81.85
2023-02-08T01:46:39.110Z,81.79
2023-02-08T01:47:39.099Z,81.75
2023-02-08T01:48:39.077Z,81.75
2023-02-08T01:49:39.065Z,81.54
2023-02-08T01:50:39.450Z,81.89
2023-02-08T01:51:39.059Z,82.10
2023-02-08T01:52:39.032Z,82.31
2023-02-08T01:53:39.067Z,82.38
2023-02-08T01:54:39.002Z,81.96
2023-02-08T01:55:38.994Z,81.89
2023-02-08T01:56:38.982Z,82.83
2023-02-08T01:57:38.955Z,82.94
2023-02-08T01:58:38.968Z,82.73
2023-02-08T01:59:38.979Z,82.73
2023-02-08T02:00:39.249Z,82.52
2023-02-08T02:01:38.968Z,82.42
2023-02-08T02:02:39.077Z,82.52
2023-02-08T02:03:38.893Z,82.52
2023-02-08T02:04:38.942Z,82.31
2023-02-08T02:05:38.905Z,82.73
2023-02-08T02:06:38.885Z,82.62
2023-02-08T02:07:38.886Z,82.83
2023-02-08T02:08:38.874Z,82.73
2023-02-08T02:09:38.911Z,82.83
2023-02-08T02:10:39.106Z,82.73
2023-02-08T02:11:38.844Z,82.98
2023-02-08T02:12:38.795Z,83.36
2023-02-08T02:13:38.796Z,82.98
2023-02-08T02:14:38.792Z,83.29
2023-02-08T02:15:38.856Z,83.40
2023-02-08T02:16:38.957Z,83.40
2023-02-08T02:17:38.756Z,83.25
2023-02-08T02:18:38.745Z,82.98
2023-02-08T02:19:38.720Z,83.15
2023-02-08T02:20:39.038Z,82.73
2023-02-08T02:21:38.717Z,83.08
2023-02-08T02:22:38.806Z,83.08
2023-02-08T02:23:38.677Z,83.25
2023-02-08T02:24:38.667Z,83.04
2023-02-08T02:25:38.652Z,82.83
2023-02-08T02:26:38.655Z,82.42
2023-02-08T02:27:38.626Z,81.96
2023-02-08T02:28:38.660Z,81.68
2023-02-08T02:29:38.653Z,81.79
2023-02-08T02:30:38.894Z,81.64
2023-02-08T02:31:38.668Z,81.26
2023-02-08T02:32:38.588Z,81.79
2023-02-08T02:33:38.636Z,81.75
2023-02-08T02:34:38.553Z,81.79
2023-02-08T02:35:38.544Z,81.99
2023-02-08T02:36:38.525Z,81.85
2023-02-08T02:37:38.715Z,81.43
2023-02-08T02:38:38.518Z,81.33
2023-02-08T02:39:38.517Z,81.01
2023-02-08T02:40:38.721Z,80.80
2023-02-08T02:41:38.477Z,80.91
2023-02-08T02:42:38.474Z,80.80
2023-02-08T02:43:38.465Z,81.12
2023-02-08T02:44:38.484Z,81.68
2023-02-08T02:45:38.474Z,81.47
2023-02-08T02:46:38.410Z,81.79
2023-02-08T02:47:38.454Z,81.85
2023-02-08T02:48:38.418Z,81.54
2023-02-08T02:49:38.424Z,81.12
2023-02-08T02:50:38.607Z,81.37
2023-02-08T02:51:38.413Z,81.79
2023-02-08T02:52:38.373Z,81.99
2023-02-08T02:53:38.357Z,82.20
2023-02-08T02:54:38.381Z,82.20
2023-02-08T02:55:38.312Z,82.10
2023-02-08T02:56:38.366Z,81.79
2023-02-08T02:57:38.344Z,81.68
2023-02-08T02:58:38.295Z,81.47
2023-02-08T02:59:38.282Z,81.99
2023-02-08T03:00:38.491Z,82.31
2023-02-08T03:01:38.254Z,82.31
2023-02-08T03:02:38.329Z,82.20
2023-02-08T03:03:38.224Z,82.10
2023-02-08T03:04:38.231Z,82.31
2023-02-08T03:05:38.205Z,82.52
2023-02-08T03:06:38.192Z,82.20
2023-02-08T03:07:38.195Z,81.57
2023-02-08T03:08:38.191Z,81.99
2023-02-08T03:09:38.166Z,82.31
2023-02-08T03:10:38.423Z,82.31
2023-02-08T03:11:38.156Z,82.42
2023-02-08T03:12:38.132Z,82.52
2023-02-08T03:13:38.133Z,82.20
2023-02-08T03:14:38.112Z,82.20
2023-02-08T03:15:38.109Z,81.99
2023-02-08T03:16:38.199Z,82.10
2023-02-08T03:17:38.098Z,82.10
2023-02-08T03:18:38.066Z,82.10
2023-02-08T03:19:38.097Z,82.45
2023-02-08T03:20:38.259Z,82.98
2023-02-08T03:21:38.028Z,83.29
2023-02-08T03:22:38.022Z,83.12
2023-02-08T03:23:38.059Z,83.44
2023-02-08T03:24:38.035Z,83.64
2023-02-08T03:25:38.024Z,83.81
2023-02-08T03:26:37.975Z,83.50
2023-02-08T03:27:38.010Z,83.08
2023-02-08T03:28:37.996Z,83.08
2023-02-08T03:29:37.944Z,83.18
2023-02-08T03:30:38.163Z,82.91
2023-02-08T03:31:38.063Z,83.01
2023-02-08T03:32:37.916Z,83.44
2023-02-08T03:33:37.908Z,83.54
2023-02-08T03:34:37.906Z,83.96
2023-02-08T03:35:37.890Z,83.54
2023-02-08T03:36:38.056Z,83.22
2023-02-08T03:37:37.857Z,83.12
2023-02-08T03:38:37.836Z,83.33
2023-02-08T03:39:37.840Z,83.22
2023-02-08T03:40:37.890Z,83.68
2023-02-08T03:41:37.870Z,84.06
2023-02-08T03:42:37.836Z,84.10
2023-02-08T03:43:37.821Z,84.20
2023-02-08T03:44:37.823Z,84.31
2023-02-08T03:45:37.785Z,84.06
2023-02-08T03:46:37.819Z,83.89
2023-02-08T03:47:37.782Z,83.96
2023-02-08T03:48:37.832Z,83.89
2023-02-08T03:49:37.811Z,83.89
2023-02-08T03:50:37.979Z,84.42
2023-02-08T03:51:37.699Z,84.27
2023-02-08T03:52:37.689Z,83.86
2023-02-08T03:53:37.754Z,83.64
2023-02-08T03:54:37.685Z,83.64
2023-02-08T03:55:37.656Z,83.33
2023-02-08T03:56:37.663Z,83.26
2023-02-08T03:57:37.643Z,83.89
2023-02-08T03:58:37.634Z,84.10
2023-02-08T03:59:37.661Z,84.17
2023-02-08T04:00:37.658Z,83.54
2023-02-08T04:01:37.642Z,83.86
2023-02-08T04:02:37.609Z,83.47
2023-02-08T04:03:37.587Z,83.68
2023-02-08T04:04:37.607Z,83.75
2023-02-08T04:05:37.561Z,83.58
2023-02-08T04:06:37.557Z,83.89
2023-02-08T04:07:37.524Z,84.14
2023-02-08T04:08:37.528Z,84.42
2023-02-08T04:09:38.849Z,84.31
2023-02-08T04:10:37.547Z,84.06
2023-02-08T04:11:37.494Z,83.64
2023-02-08T04:12:37.479Z,83.58
2023-02-08T04:13:37.514Z,83.79
2023-02-08T04:14:37.447Z,83.68
2023-02-08T04:15:37.455Z,84.00
2023-02-08T04:16:37.444Z,83.58
2023-02-08T04:17:37.416Z,83.79
2023-02-08T04:18:37.403Z,84.20
2023-02-08T04:19:37.410Z,83.79
2023-02-08T04:20:37.404Z,84.00
2023-02-08T04:21:37.378Z,84.10
2023-02-08T04:22:37.530Z,83.79
2023-02-08T04:23:37.416Z,83.89
2023-02-08T04:24:37.356Z,84.00
2023-02-08T04:25:37.324Z,83.89
2023-02-08T04:26:37.337Z,83.86
2023-02-08T04:27:37.295Z,83.26
2023-02-08T04:28:37.317Z,83.64
2023-02-08T04:29:37.290Z,83.01
2023-02-08T04:30:37.334Z,83.12
2023-02-08T04:31:37.341Z,83.33
2023-02-08T04:32:37.250Z,83.12
2023-02-08T04:33:37.286Z,82.98
2023-02-08T04:34:37.285Z,82.66
2023-02-08T04:35:37.210Z,82.59
2023-02-08T04:36:37.199Z,82.70
2023-02-08T04:37:37.198Z,82.39
2023-02-08T04:38:37.239Z,82.49
2023-02-08T04:39:37.191Z,83.15
2023-02-08T04:40:37.233Z,83.22
2023-02-08T04:41:37.186Z,82.91
2023-02-08T04:42:37.165Z,82.66
2023-02-08T04:43:37.149Z,82.24
2023-02-08T04:44:37.132Z,82.03
2023-02-08T04:45:37.150Z,80.98
2023-02-08T04:46:37.172Z,81.44
2023-02-08T04:47:37.111Z,81.65
2023-02-08T04:48:37.070Z,81.65
2023-02-08T04:49:37.059Z,81.96
2023-02-08T04:50:37.072Z,81.86
2023-02-08T04:51:37.128Z,82.28
2023-02-08T04:52:37.116Z,82.28
2023-02-08T04:53:37.025Z,82.17
2023-02-08T04:54:37.651Z,82.63
2023-02-08T04:55:37.042Z,83.58
2023-02-08T04:56:37.016Z,84.00
2023-02-08T04:57:36.993Z,84.00
2023-02-08T04:58:36.959Z,83.86
2023-02-08T04:59:36.960Z,83.22
2023-02-08T05:00:36.976Z,82.70
2023-02-08T05:01:36.950Z,82.39
2023-02-08T05:02:36.942Z,82.59
2023-02-08T05:03:36.906Z,82.84
2023-02-08T05:04:36.900Z,83.79
2023-02-08T05:05:36.889Z,83.68
2023-02-08T05:06:36.883Z,83.89
2023-02-08T05:07:36.852Z,83.93
2023-02-08T05:08:36.879Z,84.67
2023-02-08T05:09:36.842Z,85.15
2023-02-08T05:10:36.828Z,84.31
2023-02-08T05:11:36.850Z,84.14
2023-02-08T05:12:36.811Z,84.14
2023-02-08T05:13:36.835Z,83.93
2023-02-08T05:14:36.844Z,84.35
2023-02-08T05:15:36.770Z,84.88
2023-02-08T05:16:36.777Z,84.67
2023-02-08T05:17:36.765Z,84.42
2023-02-08T05:18:36.727Z,83.68
2023-02-08T05:19:36.756Z,83.37
2023-02-08T05:20:36.797Z,82.95
2023-02-08T05:21:36.707Z,83.51
2023-02-08T05:22:36.691Z,83.58
2023-02-08T05:23:36.686Z,83.51
2023-02-08T05:24:36.667Z,83.83
2023-02-08T05:25:36.653Z,83.83
2023-02-08T05:26:36.728Z,83.61
2023-02-08T05:27:36.654Z,84.08
2023-02-08T05:28:36.653Z,84.77
2023-02-08T05:29:36.620Z,84.45
2023-02-08T05:30:36.633Z,84.35
2023-02-08T05:31:36.752Z,84.45
2023-02-08T05:32:36.608Z,84.39
2023-02-08T05:33:36.597Z,84.49
2023-02-08T05:34:36.562Z,84.84
2023-02-08T05:35:36.572Z,85.69
2023-02-08T05:36:36.541Z,86.21
2023-02-08T05:37:36.520Z,86.00
2023-02-08T05:38:36.545Z,85.86
2023-02-08T05:39:36.505Z,86.00
2023-02-08T05:40:36.522Z,86.21
2023-02-08T05:41:36.497Z,86.32
2023-02-08T05:42:36.470Z,86.18
2023-02-08T05:43:36.462Z,85.40
2023-02-08T05:44:36.483Z,84.70
2023-02-08T05:45:36.436Z,84.81
2023-02-08T05:46:38.149Z,85.44
2023-02-08T05:47:36.415Z,85.75
2023-02-08T05:48:36.392Z,85.65
2023-02-08T05:49:36.448Z,85.30
2023-02-08T05:50:36.391Z,84.56
2023-02-08T05:51:36.399Z,84.14
2023-02-08T05:52:36.379Z,83.93
2023-02-08T05:53:36.346Z,83.86
2023-02-08T05:54:36.368Z,84.28
2023-02-08T05:55:36.341Z,84.39
2023-02-08T05:56:36.357Z,84.70
2023-02-08T05:57:36.301Z,84.60
2023-02-08T05:58:36.303Z,84.14
2023-02-08T05:59:36.290Z,84.03
2023-02-08T06:00:36.280Z,83.83
2023-02-08T06:01:36.295Z,83.97
2023-02-08T06:02:36.332Z,84.28
2023-02-08T06:03:36.290Z,84.49
2023-02-08T06:04:38.745Z,84.60
2023-02-08T06:05:36.211Z,84.70
2023-02-08T06:06:36.203Z,84.70
2023-02-08T06:07:36.215Z,84.28
2023-02-08T06:08:36.180Z,84.03
2023-02-08T06:09:36.223Z,83.93
2023-02-08T06:10:36.154Z,83.51
2023-02-08T06:11:36.223Z,83.51
2023-02-08T06:12:36.144Z,83.54
2023-02-08T06:13:36.205Z,84.08
2023-02-08T06:14:36.126Z,83.54
2023-02-08T06:15:36.108Z,83.86
2023-02-08T06:16:36.107Z,84.18
2023-02-08T06:17:36.082Z,84.28
2023-02-08T06:18:36.088Z,84.39
2023-02-08T06:19:36.137Z,84.03
2023-02-08T06:20:36.058Z,83.61
2023-02-08T06:21:36.093Z,83.20
2023-02-08T06:22:36.026Z,82.88
2023-02-08T06:23:36.012Z,83.13
2023-02-08T06:24:36.041Z,83.54
2023-02-08T06:25:35.992Z,83.76
2023-02-08T06:26:36.109Z,83.76
2023-02-08T06:27:35.998Z,84.08
2023-02-08T06:28:35.970Z,83.97
2023-02-08T06:29:35.952Z,83.86
2023-02-08T06:30:35.961Z,83.97
2023-02-08T06:31:35.980Z,84.08
2023-02-08T06:32:35.925Z,83.93
2023-02-08T06:33:35.943Z,83.37
2023-02-08T06:34:35.904Z,82.78
2023-02-08T06:35:35.895Z,82.98
2023-02-08T06:36:35.895Z,83.40
2023-02-08T06:37:35.874Z,83.26
2023-02-08T06:38:35.860Z,82.32
2023-02-08T06:39:35.908Z,82.78
2023-02-08T06:40:35.831Z,82.98
2023-02-08T06:41:35.873Z,83.30
2023-02-08T06:42:35.829Z,83.09
2023-02-08T06:43:35.813Z,82.78
2023-02-08T06:44:35.813Z,83.09
2023-02-08T06:45:35.832Z,82.56
2023-02-08T06:46:35.788Z,82.88
2023-02-08T06:47:35.782Z,83.09
2023-02-08T06:48:35.754Z,83.23
2023-02-08T06:49:35.737Z,83.72
2023-02-08T06:50:35.811Z,83.40
2023-02-08T06:51:35.726Z,83.44
2023-02-08T06:52:35.792Z,83.86
2023-02-08T06:53:35.723Z,83.86
2023-02-08T06:54:35.705Z,83.97
2023-02-08T06:55:35.678Z,84.08
2023-02-08T06:56:35.685Z,83.83
2023-02-08T06:57:35.652Z,83.30
2023-02-08T06:58:35.661Z,83.51
2023-02-08T06:59:35.626Z,82.88
2023-02-08T07:00:35.643Z,83.09
2023-02-08T07:01:35.646Z,82.78
2023-02-08T07:02:35.671Z,83.09
2023-02-08T07:03:35.627Z,82.98
2023-02-08T07:04:35.584Z,82.88
2023-02-08T07:05:35.616Z,82.98
2023-02-08T07:06:35.565Z,82.98
2023-02-08T07:07:35.559Z,83.09
2023-02-08T07:08:35.616Z,82.63
2023-02-08T07:09:35.606Z,82.56
2023-02-08T07:10:35.519Z,82.46
2023-02-08T07:11:35.509Z,82.88
2023-02-08T07:12:35.501Z,82.88
2023-02-08T07:13:35.505Z,83.09
2023-02-08T07:14:35.491Z,83.40
2023-02-08T07:15:35.506Z,83.20
2023-02-08T07:16:35.478Z,82.98
2023-02-08T07:17:35.436Z,82.84
2023-02-08T07:18:35.456Z,82.74
2023-02-08T07:19:35.429Z,82.63
2023-02-08T07:20:35.431Z,82.98
2023-02-08T07:21:35.450Z,83.61
2023-02-08T07:22:35.404Z,83.47
2023-02-08T07:23:35.399Z,83.15
2023-02-08T07:24:35.427Z,83.15
2023-02-08T07:25:35.345Z,82.95
2023-02-08T07:26:35.348Z,82.84
2023-02-08T07:27:35.362Z,82.63
2023-02-08T07:28:35.324Z,83.20
2023-02-08T07:29:35.395Z,83.37
2023-02-08T07:30:35.332Z,82.95
2023-02-08T07:31:35.373Z,83.26
2023-02-08T07:32:35.405Z,83.47
2023-02-08T07:33:35.285Z,83.12
2023-02-08T07:34:35.304Z,82.78
2023-02-08T07:35:35.258Z,83.61
2023-02-08T07:36:35.239Z,83.79
2023-02-08T07:37:35.230Z,83.26
2023-02-08T07:38:35.256Z,83.22
2023-02-08T07:39:35.222Z,82.59
2023-02-08T07:40:35.231Z,82.84
2023-02-08T07:41:35.191Z,83.37
2023-02-08T07:42:35.203Z,83.44
2023-02-08T07:43:35.160Z,83.33
2023-02-08T07:44:35.220Z,83.33
2023-02-08T07:45:35.162Z,83.50
2023-02-08T07:46:35.175Z,83.01
2023-02-08T07:47:35.130Z,83.01
2023-02-08T07:48:35.129Z,83.33
2023-02-08T07:49:35.112Z,83.22
2023-02-08T07:50:35.111Z,82.87
2023-02-08T07:51:35.091Z,82.76
2023-02-08T07:52:35.117Z,82.62
2023-02-08T07:53:35.086Z,82.31
2023-02-08T07:54:35.044Z,81.75
2023-02-08T07:55:35.041Z,81.47
2023-02-08T07:56:35.098Z,81.68
2023-02-08T07:57:35.040Z,81.54
2023-02-08T07:58:35.002Z,81.05
2023-02-08T07:59:36.538Z,81.43
2023-02-08T08:00:35.221Z,81.37
2023-02-08T08:01:35.040Z,81.57
2023-02-08T08:02:35.004Z,81.43
2023-02-08T08:03:34.981Z,80.77
2023-02-08T08:04:34.951Z,80.60
2023-02-08T08:05:34.967Z,80.14
2023-02-08T08:06:34.933Z,80.14
2023-02-08T08:07:34.974Z,80.24
2023-02-08T08:08:34.922Z,80.24
2023-02-08T08:09:34.924Z,80.14
2023-02-08T08:10:34.865Z,80.24
2023-02-08T08:11:34.939Z,80.60
2023-02-08T08:12:34.909Z,80.98
2023-02-08T08:13:34.848Z,80.77
2023-02-08T08:14:34.873Z,80.49
2023-02-08T08:15:34.815Z,80.91
2023-02-08T08:16:34.864Z,81.19
2023-02-08T08:17:34.807Z,80.94
2023-02-08T08:18:34.817Z,80.52
2023-02-08T08:19:34.965Z,80.10
2023-02-08T08:20:34.772Z,79.90
2023-02-08T08:21:35.699Z,80.00
2023-02-08T08:22:34.733Z,79.86
2023-02-08T08:23:34.734Z,79.44
2023-02-08T08:24:34.757Z,79.44
2023-02-08T08:25:34.809Z,79.44
2023-02-08T08:26:34.698Z,79.58
2023-02-08T08:27:34.946Z,79.40
2023-02-08T08:28:34.779Z,79.13
2023-02-08T08:29:34.769Z,79.47
2023-02-08T08:30:34.772Z,79.90
2023-02-08T08:31:34.772Z,80.07
2023-02-08T08:32:34.658Z,79.47
2023-02-08T08:33:34.757Z,78.53
2023-02-08T08:34:34.726Z,78.39
2023-02-08T08:35:34.664Z,78.99
2023-02-08T08:36:34.658Z,78.42
2023-02-08T08:37:34.649Z,78.01
2023-02-08T08:38:34.676Z,78.04
2023-02-08T08:39:34.575Z,78.56
2023-02-08T08:40:34.564Z,78.95
2023-02-08T08:41:34.585Z,78.56
2023-02-08T08:42:34.642Z,78.60
2023-02-08T08:43:34.550Z,79.19
2023-02-08T08:44:34.627Z,78.91
2023-02-08T08:45:34.506Z,79.05
2023-02-08T08:46:34.606Z,79.12
2023-02-08T08:47:34.854Z,78.49
2023-02-08T08:48:34.532Z,77.83
2023-02-08T08:49:34.469Z,77.69
2023-02-08T08:50:34.507Z,76.57
2023-02-08T08:51:34.497Z,76.47
2023-02-08T08:52:34.583Z,76.54
2023-02-08T08:53:34.537Z,76.26
2023-02-08T08:54:34.397Z,76.68
2023-02-08T08:55:34.397Z,76.96
2023-02-08T08:56:34.432Z,76.72
2023-02-08T08:57:34.378Z,76.12
2023-02-08T08:58:34.584Z,76.44
2023-02-08T08:59:34.327Z,76.96
2023-02-08T09:00:34.306Z,76.92
2023-02-08T09:01:34.791Z,76.89
2023-02-08T09:02:34.307Z,77.00
2023-02-08T09:03:34.327Z,76.86
2023-02-08T09:04:34.280Z,76.12
2023-02-08T09:05:34.265Z,76.54
2023-02-08T09:06:34.253Z,76.23
2023-02-08T09:07:34.250Z,75.92
2023-02-08T09:08:34.260Z,75.98
2023-02-08T09:09:34.173Z,75.18
2023-02-08T09:10:34.233Z,74.87
2023-02-08T09:11:34.298Z,74.77
2023-02-08T09:12:34.201Z,74.98
2023-02-08T09:13:34.171Z,74.84
2023-02-08T09:14:34.141Z,74.42
2023-02-08T09:15:34.165Z,75.05
2023-02-08T09:16:34.134Z,75.32
2023-02-08T09:17:34.121Z,75.12
2023-02-08T09:18:34.161Z,74.07
2023-02-08T09:19:34.086Z,74.39
2023-02-08T09:20:34.086Z,74.18
2023-02-08T09:21:34.060Z,74.35
2023-02-08T09:22:34.758Z,73.80
2023-02-08T09:23:34.031Z,72.83
2023-02-08T09:24:34.020Z,72.03
2023-02-08T09:25:34.018Z,72.27
2023-02-08T09:26:34.036Z,73.10
2023-02-08T09:27:34.041Z,73.52
2023-02-08T09:28:34.030Z,72.86
2023-02-08T09:29:33.972Z,71.92
2023-02-08T09:30:33.972Z,71.41
2023-02-08T09:31:34.073Z,71.51
2023-02-08T09:32:34.035Z,72.20
2023-02-08T09:33:33.912Z,72.59
2023-02-08T09:34:33.932Z,72.28
2023-02-08T09:35:33.915Z,70.72
2023-02-08T09:36:33.902Z,70.72
2023-02-08T09:37:33.962Z,70.09
2023-02-08T09:38:34.723Z,69.26
2023-02-08T09:39:33.940Z,67.91
2023-02-08T09:40:33.926Z,67.57
2023-02-08T09:41:33.832Z,67.88
2023-02-08T09:42:33.865Z,68.81
2023-02-08T09:43:33.879Z,69.43
2023-02-08T09:44:33.805Z,69.09
2023-02-08T09:45:33.828Z,68.16
2023-02-08T09:46:33.893Z,67.95
2023-02-08T09:47:35.069Z,68.33
2023-02-08T09:48:33.803Z,67.85
2023-02-08T09:49:33.759Z,68.13
2023-02-08T09:50:33.930Z,67.12
2023-02-08T09:51:33.731Z,66.99
2023-02-08T09:52:33.720Z,67.19
2023-02-08T09:53:33.739Z,67.82
2023-02-08T09:54:33.735Z,67.58
2023-02-08T09:55:33.688Z,66.72
2023-02-08T09:56:33.674Z,66.41
2023-02-08T09:57:33.690Z,65.78
2023-02-08T09:58:33.649Z,63.68
2023-02-08T09:59:33.660Z,62.64
2023-02-08T10:00:33.709Z,61.50
2023-02-08T10:01:33.701Z,61.40
2023-02-08T10:02:33.593Z,62.09
2023-02-08T10:03:33.678Z,63.44
2023-02-08T10:04:33.671Z,62.30
2023-02-08T10:05:33.585Z,61.29
2023-02-08T10:06:33.540Z,60.46
2023-02-08T10:07:33.549Z,60.10
2023-02-08T10:08:35.553Z,60.62
2023-02-08T10:09:33.540Z,59.89
2023-02-08T10:10:33.561Z,59.14
2023-02-08T10:11:33.510Z,59.42
2023-02-08T10:12:33.512Z,58.78
2023-02-08T10:13:41.308Z,58.49
2023-02-08T10:14:34.499Z,57.53
2023-02-08T10:15:33.550Z,57.30
2023-02-08T10:16:33.501Z,55.02
2023-02-08T10:17:33.470Z,54.47
2023-02-08T10:18:33.520Z,54.68
2023-02-08T10:19:33.452Z,54.06
2023-02-08T10:20:33.435Z,52.48
2023-02-08T10:21:33.423Z,53.20
2023-02-08T10:22:33.542Z,53.31
2023-02-08T10:23:33.394Z,53.52
2023-02-08T10:24:33.363Z,53.52
2023-02-08T10:25:33.352Z,52.20
2023-02-08T10:26:33.399Z,51.78
2023-02-08T10:27:33.341Z,53.00
2023-02-08T10:28:33.446Z,53.72
2023-02-08T10:29:33.980Z,52.30
2023-02-08T10:30:33.344Z,51.76
2023-02-08T10:31:33.307Z,52.07
2023-02-08T10:32:33.272Z,51.24
2023-02-08T10:33:33.265Z,50.77
2023-02-08T10:34:33.232Z,51.39
2023-02-08T10:35:33.246Z,52.33
2023-02-08T10:36:33.207Z,51.45
2023-02-08T10:37:33.233Z,52.17
2023-02-08T10:38:45.393Z,52.59
2023-02-08T10:39:35.670Z,51.61
2023-02-08T10:40:33.167Z,51.40
2023-02-08T10:41:33.154Z,50.55
2023-02-08T10:42:33.161Z,49.74
2023-02-08T10:43:33.162Z,49.46
2023-02-08T10:44:33.111Z,50.60
2023-02-08T10:45:33.145Z,50.39
2023-02-08T10:46:33.104Z,51.73
2023-02-08T10:47:33.103Z,50.70
2023-02-08T10:48:33.087Z,49.33
2023-02-08T10:49:33.115Z,51.07
2023-02-08T10:50:33.056Z,50.57
2023-02-08T10:51:33.052Z,49.82
2023-02-08T10:52:33.081Z,50.45
2023-02-08T10:53:33.047Z,50.08
2023-02-08T10:54:33.062Z,50.60
2023-02-08T10:55:35.362Z,50.41
2023-02-08T10:56:32.990Z,50.90
2023-02-08T10:57:32.982Z,50.08
2023-02-08T10:58:32.970Z,52.04
2023-02-08T10:59:32.970Z,51.21
2023-02-08T11:00:33.012Z,51.68
2023-02-08T11:01:32.949Z,52.44
2023-02-08T11:02:32.927Z,52.25
2023-02-08T11:03:32.909Z,51.42
2023-02-08T11:04:32.951Z,50.78
2023-02-08T11:05:32.889Z,49.77
2023-02-08T11:06:33.009Z,51.42
2023-02-08T11:07:36.008Z,50.86
2023-02-08T11:08:32.861Z,51.81
2023-02-08T11:09:32.845Z,52.75
2023-02-08T11:10:32.835Z,53.86
2023-02-08T11:11:32.830Z,53.44
2023-02-08T11:12:32.840Z,52.85
2023-02-08T11:13:34.705Z,52.75
2023-02-08T11:14:46.191Z,50.55
2023-02-08T11:15:33.820Z,51.35
2023-02-08T11:16:33.200Z,50.96
2023-02-08T11:17:32.784Z,49.72
2023-02-08T11:18:32.732Z,50.45
2023-02-08T11:19:34.747Z,50.73
2023-02-08T11:20:32.702Z,50.55
2023-02-08T11:21:32.717Z,51.29
2023-02-08T11:22:32.693Z,52.12
2023-02-08T11:23:32.698Z,50.86
2023-02-08T11:24:32.655Z,50.03
2023-02-08T11:25:34.900Z,50.11
2023-02-08T11:26:32.692Z,49.29
2023-02-08T11:27:32.637Z,49.95
2023-02-08T11:28:32.644Z,50.13
2023-02-08T11:29:32.598Z,50.76
2023-02-08T11:30:32.660Z,49.93
2023-02-08T11:31:32.671Z,50.65
2023-02-08T11:32:32.558Z,50.96
2023-02-08T11:33:32.631Z,49.82
2023-02-08T11:34:32.555Z,49.80
2023-02-08T11:35:32.526Z,50.09
2023-02-08T11:36:32.844Z,49.88
2023-02-08T11:37:32.501Z,50.09
2023-02-08T11:38:32.505Z,49.78
2023-02-08T11:39:32.752Z,49.34
2023-02-08T11:40:32.523Z,49.78
2023-02-08T11:41:32.458Z,50.09
2023-02-08T11:42:32.495Z,49.68
2023-02-08T11:43:32.426Z,49.49
2023-02-08T11:44:32.419Z,49.31
2023-02-08T11:45:32.504Z,50.39
2023-02-08T11:46:32.437Z,50.47
2023-02-08T11:47:32.398Z,51.81
2023-02-08T11:48:32.378Z,51.37
2023-02-08T11:49:32.472Z,52.12
2023-02-08T11:50:32.416Z,50.94
2023-02-08T11:51:32.441Z,51.12
2023-02-08T11:52:32.650Z,49.88
2023-02-08T11:53:32.380Z,50.20
2023-02-08T11:54:32.319Z,51.31
2023-02-08T11:55:32.351Z,49.86
2023-02-08T11:56:32.340Z,49.76
2023-02-08T11:57:32.374Z,49.84
2023-02-08T11:58:32.307Z,49.63
2023-02-08T11:59:32.244Z,49.94
2023-02-08T12:00:32.260Z,49.84
2023-02-08T12:01:32.220Z,50.60
2023-02-08T12:02:32.291Z,50.99
2023-02-08T12:03:32.222Z,51.10
2023-02-08T12:04:32.185Z,50.76
2023-02-08T12:05:32.204Z,50.04
2023-02-08T12:06:32.184Z,51.28
2023-02-08T12:07:32.241Z,50.97
2023-02-08T12:08:32.144Z,49.04
2023-02-08T12:09:32.143Z,48.91
2023-02-08T12:10:32.137Z,49.11
2023-02-08T12:11:32.104Z,49.04
2023-02-08T12:12:32.098Z,48.85
2023-02-08T12:13:32.101Z,49.99
2023-02-08T12:14:32.087Z,50.38
2023-02-08T12:15:32.154Z,49.65
2023-02-08T12:16:32.695Z,49.37
2023-02-08T12:17:32.051Z,49.55
2023-02-08T12:18:32.028Z,49.44
2023-02-08T12:19:32.057Z,49.04
2023-02-08T12:20:32.042Z,48.08
2023-02-08T12:21:32.034Z,49.14
2023-02-08T12:22:31.990Z,49.44
2023-02-08T12:23:31.974Z,49.44
2023-02-08T12:24:31.952Z,49.34
2023-02-08T12:25:31.988Z,48.83
2023-02-08T12:26:31.971Z,48.60
2023-02-08T12:27:31.946Z,48.70
2023-02-08T12:28:31.905Z,50.27
2023-02-08T12:29:41.966Z,49.84
2023-02-08T12:30:32.930Z,49.86
2023-02-08T12:31:31.966Z,48.83
2023-02-08T12:32:31.861Z,49.86
2023-02-08T12:33:31.852Z,49.57
2023-02-08T12:34:31.864Z,49.44
2023-02-08T12:35:43.275Z,49.88
2023-02-08T12:36:32.863Z,49.47
2023-02-08T12:37:31.818Z,49.55
2023-02-08T12:38:31.790Z,51.41
2023-02-08T12:39:31.791Z,48.95
2023-02-08T12:40:31.759Z,50.81
2023-02-08T12:41:31.832Z,50.29
2023-02-08T12:42:31.753Z,50.07
2023-02-08T12:43:31.726Z,50.79
2023-02-08T12:44:31.720Z,50.68
2023-02-08T12:45:31.704Z,49.63
2023-02-08T12:46:31.736Z,49.14
2023-02-08T12:47:31.703Z,48.70
2023-02-08T12:48:31.674Z,48.60
2023-02-08T12:49:31.649Z,48.31
2023-02-08T12:50:31.649Z,48.08
2023-02-08T12:51:31.672Z,48.39
2023-02-08T12:52:31.650Z,47.96